sensor_id;sensor_type;location;lat;lon;timestamp;P1;durP1;ratioP1;P2;durP2;ratioP2
38111;SDS011;64011;56.312;44.048;2023-12-22T00:01:32;24.15;;;11.20;;
38111;SDS011;64011;56.312;44.048;2023-12-22T00:03:33;23.20;;;11.27;;
38111;SDS011;64011;56.312;44.048;2023-12-22T00:05:34;24.42;;;10.73;;
38111;SDS011;64011;56.312;44.048;2023-12-22T00:07:35;21.75;;;10.35;;
38111;SDS011;64011;56.312;44.048;2023-12-22T00:09:35;24.17;;;11.25;;
38111;SDS011;64011;56.312;44.048;2023-12-22T00:11:36;22.48;;;11.60;;
38111;SDS011;64011;56.312;44.048;2023-12-22T00:13:37;22.63;;;10.25;;
38111;SDS011;64011;56.312;44.048;2023-12-22T00:15:39;19.65;;;9.35;;
38111;SDS011;64011;56.312;44.048;2023-12-22T00:17:40;21.88;;;10.65;;
38111;SDS011;64011;56.312;44.048;2023-12-22T00:19:41;20.25;;;9.45;;
38111;SDS011;64011;56.312;44.048;2023-12-22T00:21:42;23.05;;;10.60;;
38111;SDS011;64011;56.312;44.048;2023-12-22T00:23:43;22.85;;;10.07;;
38111;SDS011;64011;56.312;44.048;2023-12-22T00:25:44;21.25;;;9.80;;
38111;SDS011;64011;56.312;44.048;2023-12-22T00:27:44;22.20;;;9.63;;
38111;SDS011;64011;56.312;44.048;2023-12-22T00:29:45;20.77;;;9.98;;
38111;SDS011;64011;56.312;44.048;2023-12-22T00:31:48;20.63;;;9.05;;
38111;SDS011;64011;56.312;44.048;2023-12-22T00:33:48;20.50;;;9.20;;
38111;SDS011;64011;56.312;44.048;2023-12-22T00:35:49;19.23;;;8.98;;
38111;SDS011;64011;56.312;44.048;2023-12-22T00:37:50;20.83;;;9.85;;
38111;SDS011;64011;56.312;44.048;2023-12-22T00:39:51;19.85;;;9.07;;
38111;SDS011;64011;56.312;44.048;2023-12-22T00:41:52;22.52;;;11.05;;
38111;SDS011;64011;56.312;44.048;2023-12-22T00:43:53;20.85;;;9.75;;
38111;SDS011;64011;56.312;44.048;2023-12-22T00:45:55;20.95;;;9.48;;
38111;SDS011;64011;56.312;44.048;2023-12-22T00:47:57;22.98;;;10.55;;
38111;SDS011;64011;56.312;44.048;2023-12-22T00:49:58;24.20;;;11.25;;
38111;SDS011;64011;56.312;44.048;2023-12-22T00:51:59;22.25;;;10.68;;
38111;SDS011;64011;56.312;44.048;2023-12-22T00:53:59;24.05;;;11.00;;
38111;SDS011;64011;56.312;44.048;2023-12-22T00:56:00;22.55;;;10.65;;
38111;SDS011;64011;56.312;44.048;2023-12-22T00:58:01;25.30;;;11.60;;
38111;SDS011;64011;56.312;44.048;2023-12-22T01:00:03;23.30;;;10.15;;
38111;SDS011;64011;56.312;44.048;2023-12-22T01:02:05;24.48;;;12.30;;
38111;SDS011;64011;56.312;44.048;2023-12-22T01:04:07;23.73;;;11.88;;
38111;SDS011;64011;56.312;44.048;2023-12-22T01:06:08;25.00;;;10.88;;
38111;SDS011;64011;56.312;44.048;2023-12-22T01:08:09;21.83;;;10.18;;
38111;SDS011;64011;56.312;44.048;2023-12-22T01:10:10;25.40;;;12.57;;
38111;SDS011;64011;56.312;44.048;2023-12-22T01:12:11;25.83;;;12.95;;
38111;SDS011;64011;56.312;44.048;2023-12-22T01:14:12;24.88;;;12.80;;
38111;SDS011;64011;56.312;44.048;2023-12-22T01:16:14;25.13;;;12.45;;
38111;SDS011;64011;56.312;44.048;2023-12-22T01:18:15;23.35;;;11.18;;
38111;SDS011;64011;56.312;44.048;2023-12-22T01:20:17;24.52;;;12.07;;
38111;SDS011;64011;56.312;44.048;2023-12-22T01:22:18;24.65;;;11.77;;
38111;SDS011;64011;56.312;44.048;2023-12-22T01:24:19;24.63;;;11.65;;
38111;SDS011;64011;56.312;44.048;2023-12-22T01:26:20;25.17;;;12.45;;
38111;SDS011;64011;56.312;44.048;2023-12-22T01:28:21;23.55;;;11.55;;
38111;SDS011;64011;56.312;44.048;2023-12-22T01:30:22;23.27;;;11.98;;
38111;SDS011;64011;56.312;44.048;2023-12-22T01:32:22;23.80;;;11.18;;
38111;SDS011;64011;56.312;44.048;2023-12-22T01:34:23;24.85;;;12.60;;
38111;SDS011;64011;56.312;44.048;2023-12-22T01:36:26;26.73;;;12.65;;
38111;SDS011;64011;56.312;44.048;2023-12-22T01:38:27;24.80;;;11.88;;
38111;SDS011;64011;56.312;44.048;2023-12-22T01:40:27;26.17;;;12.20;;
38111;SDS011;64011;56.312;44.048;2023-12-22T01:42:28;23.65;;;11.32;;
38111;SDS011;64011;56.312;44.048;2023-12-22T01:44:29;21.90;;;9.10;;
38111;SDS011;64011;56.312;44.048;2023-12-22T01:46:30;21.60;;;9.77;;
38111;SDS011;64011;56.312;44.048;2023-12-22T01:48:32;23.17;;;11.50;;
38111;SDS011;64011;56.312;44.048;2023-12-22T01:50:33;20.65;;;8.73;;
38111;SDS011;64011;56.312;44.048;2023-12-22T01:52:35;23.48;;;11.40;;
38111;SDS011;64011;56.312;44.048;2023-12-22T01:54:36;21.92;;;9.18;;
38111;SDS011;64011;56.312;44.048;2023-12-22T01:56:37;21.58;;;8.93;;
38111;SDS011;64011;56.312;44.048;2023-12-22T01:58:38;19.02;;;7.60;;
38111;SDS011;64011;56.312;44.048;2023-12-22T02:00:39;21.88;;;10.48;;
38111;SDS011;64011;56.312;44.048;2023-12-22T02:02:40;20.73;;;9.40;;
38111;SDS011;64011;56.312;44.048;2023-12-22T02:04:41;22.13;;;10.43;;
38111;SDS011;64011;56.312;44.048;2023-12-22T02:06:42;23.42;;;9.65;;
38111;SDS011;64011;56.312;44.048;2023-12-22T02:08:45;25.83;;;11.68;;
38111;SDS011;64011;56.312;44.048;2023-12-22T02:10:47;22.60;;;11.15;;
38111;SDS011;64011;56.312;44.048;2023-12-22T02:12:48;26.48;;;12.45;;
38111;SDS011;64011;56.312;44.048;2023-12-22T02:14:49;23.95;;;10.98;;
38111;SDS011;64011;56.312;44.048;2023-12-22T02:16:51;20.67;;;10.10;;
38111;SDS011;64011;56.312;44.048;2023-12-22T02:18:55;25.10;;;12.90;;
38111;SDS011;64011;56.312;44.048;2023-12-22T02:20:57;27.13;;;13.65;;
38111;SDS011;64011;56.312;44.048;2023-12-22T02:23:00;28.70;;;13.25;;
38111;SDS011;64011;56.312;44.048;2023-12-22T02:25:01;26.65;;;12.70;;
38111;SDS011;64011;56.312;44.048;2023-12-22T02:27:04;29.45;;;13.98;;
38111;SDS011;64011;56.312;44.048;2023-12-22T02:29:06;28.40;;;13.73;;
38111;SDS011;64011;56.312;44.048;2023-12-22T02:31:09;24.55;;;11.93;;
38111;SDS011;64011;56.312;44.048;2023-12-22T02:33:16;28.38;;;13.23;;
38111;SDS011;64011;56.312;44.048;2023-12-22T02:35:19;28.05;;;14.07;;
38111;SDS011;64011;56.312;44.048;2023-12-22T02:37:21;27.95;;;13.80;;
38111;SDS011;64011;56.312;44.048;2023-12-22T02:39:24;28.95;;;14.52;;
38111;SDS011;64011;56.312;44.048;2023-12-22T02:41:25;29.55;;;15.43;;
38111;SDS011;64011;56.312;44.048;2023-12-22T02:43:26;28.67;;;12.65;;
38111;SDS011;64011;56.312;44.048;2023-12-22T02:45:27;29.58;;;13.88;;
38111;SDS011;64011;56.312;44.048;2023-12-22T02:47:28;29.50;;;14.80;;
38111;SDS011;64011;56.312;44.048;2023-12-22T02:49:29;31.42;;;14.68;;
38111;SDS011;64011;56.312;44.048;2023-12-22T02:51:30;29.42;;;13.90;;
38111;SDS011;64011;56.312;44.048;2023-12-22T02:53:31;32.95;;;14.13;;
38111;SDS011;64011;56.312;44.048;2023-12-22T02:55:33;27.55;;;12.05;;
38111;SDS011;64011;56.312;44.048;2023-12-22T02:57:34;29.67;;;13.93;;
38111;SDS011;64011;56.312;44.048;2023-12-22T02:59:36;30.52;;;13.38;;
38111;SDS011;64011;56.312;44.048;2023-12-22T03:01:37;27.42;;;12.85;;
38111;SDS011;64011;56.312;44.048;2023-12-22T03:03:38;25.95;;;12.35;;
38111;SDS011;64011;56.312;44.048;2023-12-22T03:05:39;27.55;;;12.75;;
38111;SDS011;64011;56.312;44.048;2023-12-22T03:07:40;25.63;;;12.95;;
38111;SDS011;64011;56.312;44.048;2023-12-22T03:09:41;27.35;;;13.43;;
38111;SDS011;64011;56.312;44.048;2023-12-22T03:11:44;27.45;;;12.88;;
38111;SDS011;64011;56.312;44.048;2023-12-22T03:13:44;25.58;;;12.20;;
38111;SDS011;64011;56.312;44.048;2023-12-22T03:15:45;27.90;;;13.25;;
38111;SDS011;64011;56.312;44.048;2023-12-22T03:17:46;27.92;;;13.48;;
38111;SDS011;64011;56.312;44.048;2023-12-22T03:19:47;23.50;;;11.52;;
38111;SDS011;64011;56.312;44.048;2023-12-22T03:21:48;25.60;;;12.93;;
38111;SDS011;64011;56.312;44.048;2023-12-22T03:23:49;25.63;;;12.98;;
38111;SDS011;64011;56.312;44.048;2023-12-22T03:25:51;27.55;;;13.15;;
38111;SDS011;64011;56.312;44.048;2023-12-22T03:27:53;28.65;;;13.68;;
38111;SDS011;64011;56.312;44.048;2023-12-22T03:29:54;29.25;;;12.98;;
38111;SDS011;64011;56.312;44.048;2023-12-22T03:31:56;26.08;;;13.40;;
38111;SDS011;64011;56.312;44.048;2023-12-22T03:33:57;27.92;;;13.68;;
38111;SDS011;64011;56.312;44.048;2023-12-22T03:35:57;26.13;;;13.07;;
38111;SDS011;64011;56.312;44.048;2023-12-22T03:37:58;27.92;;;13.00;;
38111;SDS011;64011;56.312;44.048;2023-12-22T03:39:59;26.83;;;13.30;;
38111;SDS011;64011;56.312;44.048;2023-12-22T03:42:00;23.17;;;10.70;;
38111;SDS011;64011;56.312;44.048;2023-12-22T03:44:04;24.42;;;11.90;;
38111;SDS011;64011;56.312;44.048;2023-12-22T03:46:04;24.40;;;11.32;;
38111;SDS011;64011;56.312;44.048;2023-12-22T03:48:06;25.70;;;11.73;;
38111;SDS011;64011;56.312;44.048;2023-12-22T03:50:07;22.27;;;10.35;;
38111;SDS011;64011;56.312;44.048;2023-12-22T03:52:08;25.33;;;11.55;;
38111;SDS011;64011;56.312;44.048;2023-12-22T03:54:09;24.90;;;12.70;;
38111;SDS011;64011;56.312;44.048;2023-12-22T03:56:10;25.58;;;12.18;;
38111;SDS011;64011;56.312;44.048;2023-12-22T03:58:11;24.75;;;12.10;;
38111;SDS011;64011;56.312;44.048;2023-12-22T04:00:14;24.88;;;11.45;;
38111;SDS011;64011;56.312;44.048;2023-12-22T04:02:16;25.45;;;12.55;;
38111;SDS011;64011;56.312;44.048;2023-12-22T04:04:17;23.98;;;11.57;;
38111;SDS011;64011;56.312;44.048;2023-12-22T04:06:18;26.05;;;12.23;;
38111;SDS011;64011;56.312;44.048;2023-12-22T04:08:19;23.05;;;10.30;;
38111;SDS011;64011;56.312;44.048;2023-12-22T04:10:20;26.33;;;12.73;;
38111;SDS011;64011;56.312;44.048;2023-12-22T04:12:21;22.50;;;10.38;;
38111;SDS011;64011;56.312;44.048;2023-12-22T04:14:21;24.73;;;12.10;;
38111;SDS011;64011;56.312;44.048;2023-12-22T04:16:24;21.08;;;9.35;;
38111;SDS011;64011;56.312;44.048;2023-12-22T04:18:25;20.25;;;9.20;;
38111;SDS011;64011;56.312;44.048;2023-12-22T04:20:25;22.05;;;10.35;;
38111;SDS011;64011;56.312;44.048;2023-12-22T04:22:26;23.27;;;10.90;;
38111;SDS011;64011;56.312;44.048;2023-12-22T04:24:27;23.63;;;11.07;;
38111;SDS011;64011;56.312;44.048;2023-12-22T04:26:28;21.13;;;9.05;;
38111;SDS011;64011;56.312;44.048;2023-12-22T04:28:29;20.88;;;8.70;;
38111;SDS011;64011;56.312;44.048;2023-12-22T04:30:30;19.48;;;8.25;;
38111;SDS011;64011;56.312;44.048;2023-12-22T04:32:32;20.10;;;9.93;;
38111;SDS011;64011;56.312;44.048;2023-12-22T04:34:33;20.25;;;8.15;;
38111;SDS011;64011;56.312;44.048;2023-12-22T04:36:35;23.98;;;10.45;;
38111;SDS011;64011;56.312;44.048;2023-12-22T04:38:36;20.10;;;8.23;;
38111;SDS011;64011;56.312;44.048;2023-12-22T04:40:37;22.92;;;10.65;;
38111;SDS011;64011;56.312;44.048;2023-12-22T04:42:38;20.13;;;9.25;;
38111;SDS011;64011;56.312;44.048;2023-12-22T04:44:38;23.13;;;11.10;;
38111;SDS011;64011;56.312;44.048;2023-12-22T04:46:39;23.65;;;10.68;;
38111;SDS011;64011;56.312;44.048;2023-12-22T04:48:42;23.30;;;10.45;;
38111;SDS011;64011;56.312;44.048;2023-12-22T04:50:42;23.83;;;11.43;;
38111;SDS011;64011;56.312;44.048;2023-12-22T04:52:43;24.13;;;10.70;;
38111;SDS011;64011;56.312;44.048;2023-12-22T04:54:44;24.30;;;11.73;;
38111;SDS011;64011;56.312;44.048;2023-12-22T04:56:45;25.88;;;10.65;;
38111;SDS011;64011;56.312;44.048;2023-12-22T04:58:46;22.67;;;8.88;;
38111;SDS011;64011;56.312;44.048;2023-12-22T05:00:47;25.33;;;12.05;;
38111;SDS011;64011;56.312;44.048;2023-12-22T05:02:48;24.70;;;11.35;;
38111;SDS011;64011;56.312;44.048;2023-12-22T05:04:50;26.55;;;12.52;;
38111;SDS011;64011;56.312;44.048;2023-12-22T05:06:51;23.70;;;11.10;;
38111;SDS011;64011;56.312;44.048;2023-12-22T05:08:52;23.30;;;12.07;;
38111;SDS011;64011;56.312;44.048;2023-12-22T05:10:53;27.38;;;11.38;;
38111;SDS011;64011;56.312;44.048;2023-12-22T05:12:54;24.33;;;10.23;;
38111;SDS011;64011;56.312;44.048;2023-12-22T05:14:55;24.75;;;12.48;;
38111;SDS011;64011;56.312;44.048;2023-12-22T05:16:56;27.83;;;12.82;;
38111;SDS011;64011;56.312;44.048;2023-12-22T05:18:57;24.48;;;12.10;;
38111;SDS011;64011;56.312;44.048;2023-12-22T05:20:59;25.95;;;11.57;;
38111;SDS011;64011;56.312;44.048;2023-12-22T05:23:00;27.42;;;13.80;;
38111;SDS011;64011;56.312;44.048;2023-12-22T05:25:01;24.10;;;11.90;;
38111;SDS011;64011;56.312;44.048;2023-12-22T05:27:04;27.92;;;12.45;;
38111;SDS011;64011;56.312;44.048;2023-12-22T05:29:05;26.20;;;12.50;;
38111;SDS011;64011;56.312;44.048;2023-12-22T05:31:06;26.98;;;12.57;;
38111;SDS011;64011;56.312;44.048;2023-12-22T05:33:07;26.10;;;11.68;;
38111;SDS011;64011;56.312;44.048;2023-12-22T05:35:08;27.08;;;11.75;;
38111;SDS011;64011;56.312;44.048;2023-12-22T05:37:10;25.00;;;11.85;;
38111;SDS011;64011;56.312;44.048;2023-12-22T05:39:11;24.52;;;11.52;;
38111;SDS011;64011;56.312;44.048;2023-12-22T05:41:12;23.40;;;10.35;;
38111;SDS011;64011;56.312;44.048;2023-12-22T05:43:12;24.65;;;11.23;;
38111;SDS011;64011;56.312;44.048;2023-12-22T05:45:14;22.50;;;11.10;;
38111;SDS011;64011;56.312;44.048;2023-12-22T05:47:16;24.20;;;11.40;;
38111;SDS011;64011;56.312;44.048;2023-12-22T05:49:16;22.10;;;10.38;;
38111;SDS011;64011;56.312;44.048;2023-12-22T05:51:17;23.15;;;10.65;;
38111;SDS011;64011;56.312;44.048;2023-12-22T05:53:20;20.98;;;9.90;;
38111;SDS011;64011;56.312;44.048;2023-12-22T05:55:20;24.08;;;10.90;;
38111;SDS011;64011;56.312;44.048;2023-12-22T05:57:21;24.65;;;12.10;;
38111;SDS011;64011;56.312;44.048;2023-12-22T05:59:22;23.60;;;11.48;;
38111;SDS011;64011;56.312;44.048;2023-12-22T06:01:23;25.88;;;12.65;;
38111;SDS011;64011;56.312;44.048;2023-12-22T06:03:24;24.80;;;12.90;;
38111;SDS011;64011;56.312;44.048;2023-12-22T06:05:25;24.90;;;11.90;;
38111;SDS011;64011;56.312;44.048;2023-12-22T06:07:26;26.92;;;13.35;;
38111;SDS011;64011;56.312;44.048;2023-12-22T06:09:28;25.45;;;11.77;;
38111;SDS011;64011;56.312;44.048;2023-12-22T06:11:29;27.00;;;12.80;;
38111;SDS011;64011;56.312;44.048;2023-12-22T06:13:30;27.13;;;12.85;;
38111;SDS011;64011;56.312;44.048;2023-12-22T06:15:30;28.33;;;13.63;;
38111;SDS011;64011;56.312;44.048;2023-12-22T06:17:32;26.63;;;13.27;;
38111;SDS011;64011;56.312;44.048;2023-12-22T06:19:33;27.08;;;13.93;;
38111;SDS011;64011;56.312;44.048;2023-12-22T06:21:36;27.30;;;13.57;;
38111;SDS011;64011;56.312;44.048;2023-12-22T06:23:37;26.80;;;13.30;;
38111;SDS011;64011;56.312;44.048;2023-12-22T06:25:40;27.55;;;13.88;;
38111;SDS011;64011;56.312;44.048;2023-12-22T06:27:41;25.45;;;12.70;;
38111;SDS011;64011;56.312;44.048;2023-12-22T06:29:41;28.35;;;14.65;;
38111;SDS011;64011;56.312;44.048;2023-12-22T06:31:42;24.30;;;13.02;;
38111;SDS011;64011;56.312;44.048;2023-12-22T06:33:43;22.75;;;12.30;;
38111;SDS011;64011;56.312;44.048;2023-12-22T06:35:44;23.83;;;12.52;;
38111;SDS011;64011;56.312;44.048;2023-12-22T06:37:45;21.98;;;11.07;;
38111;SDS011;64011;56.312;44.048;2023-12-22T06:39:46;25.30;;;14.90;;
38111;SDS011;64011;56.312;44.048;2023-12-22T06:41:48;26.85;;;16.27;;
38111;SDS011;64011;56.312;44.048;2023-12-22T06:43:49;29.23;;;17.77;;
38111;SDS011;64011;56.312;44.048;2023-12-22T06:45:50;24.45;;;14.32;;
38111;SDS011;64011;56.312;44.048;2023-12-22T06:47:51;24.38;;;14.02;;
38111;SDS011;64011;56.312;44.048;2023-12-22T06:49:52;24.08;;;12.55;;
38111;SDS011;64011;56.312;44.048;2023-12-22T06:51:53;21.45;;;11.65;;
38111;SDS011;64011;56.312;44.048;2023-12-22T06:53:54;21.08;;;11.13;;
38111;SDS011;64011;56.312;44.048;2023-12-22T06:55:55;20.33;;;11.10;;
38111;SDS011;64011;56.312;44.048;2023-12-22T06:57:57;21.88;;;11.88;;
38111;SDS011;64011;56.312;44.048;2023-12-22T06:59:58;21.77;;;11.68;;
38111;SDS011;64011;56.312;44.048;2023-12-22T07:01:59;22.58;;;11.20;;
38111;SDS011;64011;56.312;44.048;2023-12-22T07:04:00;20.85;;;10.98;;
38111;SDS011;64011;56.312;44.048;2023-12-22T07:06:02;22.42;;;11.63;;
38111;SDS011;64011;56.312;44.048;2023-12-22T07:08:04;19.45;;;10.68;;
38111;SDS011;64011;56.312;44.048;2023-12-22T07:10:06;20.67;;;10.60;;
38111;SDS011;64011;56.312;44.048;2023-12-22T07:12:07;19.60;;;9.57;;
38111;SDS011;64011;56.312;44.048;2023-12-22T07:14:09;18.85;;;8.60;;
38111;SDS011;64011;56.312;44.048;2023-12-22T07:16:10;20.05;;;9.07;;
38111;SDS011;64011;56.312;44.048;2023-12-22T07:18:12;20.27;;;9.85;;
38111;SDS011;64011;56.312;44.048;2023-12-22T07:20:12;18.20;;;8.50;;
38111;SDS011;64011;56.312;44.048;2023-12-22T07:22:13;20.02;;;10.93;;
38111;SDS011;64011;56.312;44.048;2023-12-22T07:24:14;17.98;;;9.20;;
38111;SDS011;64011;56.312;44.048;2023-12-22T07:26:15;18.80;;;8.23;;
38111;SDS011;64011;56.312;44.048;2023-12-22T07:28:16;19.35;;;9.52;;
38111;SDS011;64011;56.312;44.048;2023-12-22T07:30:18;18.05;;;9.05;;
38111;SDS011;64011;56.312;44.048;2023-12-22T07:32:19;19.73;;;8.50;;
38111;SDS011;64011;56.312;44.048;2023-12-22T07:34:20;19.67;;;9.80;;
38111;SDS011;64011;56.312;44.048;2023-12-22T07:36:21;18.88;;;9.75;;
38111;SDS011;64011;56.312;44.048;2023-12-22T07:38:22;17.50;;;9.05;;
38111;SDS011;64011;56.312;44.048;2023-12-22T07:40:23;18.92;;;9.80;;
38111;SDS011;64011;56.312;44.048;2023-12-22T07:42:24;18.90;;;9.93;;
38111;SDS011;64011;56.312;44.048;2023-12-22T07:44:24;19.40;;;9.88;;
38111;SDS011;64011;56.312;44.048;2023-12-22T07:46:27;19.25;;;9.77;;
38111;SDS011;64011;56.312;44.048;2023-12-22T07:48:28;18.17;;;8.85;;
38111;SDS011;64011;56.312;44.048;2023-12-22T07:50:28;21.55;;;9.43;;
38111;SDS011;64011;56.312;44.048;2023-12-22T07:52:29;20.00;;;9.00;;
38111;SDS011;64011;56.312;44.048;2023-12-22T07:54:30;18.52;;;8.55;;
38111;SDS011;64011;56.312;44.048;2023-12-22T07:56:31;19.38;;;8.63;;
38111;SDS011;64011;56.312;44.048;2023-12-22T07:58:32;20.35;;;9.90;;
38111;SDS011;64011;56.312;44.048;2023-12-22T08:00:33;23.17;;;9.68;;
38111;SDS011;64011;56.312;44.048;2023-12-22T08:02:35;20.58;;;9.63;;
38111;SDS011;64011;56.312;44.048;2023-12-22T08:04:36;18.48;;;8.45;;
38111;SDS011;64011;56.312;44.048;2023-12-22T08:06:37;18.42;;;8.38;;
38111;SDS011;64011;56.312;44.048;2023-12-22T08:08:38;19.83;;;9.25;;
38111;SDS011;64011;56.312;44.048;2023-12-22T08:10:39;20.83;;;9.50;;
38111;SDS011;64011;56.312;44.048;2023-12-22T08:12:40;21.00;;;9.32;;
38111;SDS011;64011;56.312;44.048;2023-12-22T08:14:41;19.60;;;8.82;;
38111;SDS011;64011;56.312;44.048;2023-12-22T08:16:41;18.15;;;8.07;;
38111;SDS011;64011;56.312;44.048;2023-12-22T08:18:44;20.17;;;9.32;;
38111;SDS011;64011;56.312;44.048;2023-12-22T08:20:45;19.15;;;9.38;;
38111;SDS011;64011;56.312;44.048;2023-12-22T08:22:46;19.70;;;8.88;;
38111;SDS011;64011;56.312;44.048;2023-12-22T08:24:46;19.35;;;9.27;;
38111;SDS011;64011;56.312;44.048;2023-12-22T08:26:47;21.17;;;10.00;;
38111;SDS011;64011;56.312;44.048;2023-12-22T08:28:48;19.90;;;8.95;;
38111;SDS011;64011;56.312;44.048;2023-12-22T08:30:49;22.13;;;9.88;;
38111;SDS011;64011;56.312;44.048;2023-12-22T08:32:50;20.75;;;9.80;;
38111;SDS011;64011;56.312;44.048;2023-12-22T08:34:52;21.63;;;10.30;;
38111;SDS011;64011;56.312;44.048;2023-12-22T08:36:53;20.45;;;10.20;;
38111;SDS011;64011;56.312;44.048;2023-12-22T08:38:54;20.38;;;9.70;;
38111;SDS011;64011;56.312;44.048;2023-12-22T08:40:55;23.65;;;10.73;;
38111;SDS011;64011;56.312;44.048;2023-12-22T08:42:56;23.90;;;10.23;;
38111;SDS011;64011;56.312;44.048;2023-12-22T08:44:57;24.95;;;11.65;;
38111;SDS011;64011;56.312;44.048;2023-12-22T08:46:58;23.98;;;11.70;;
38111;SDS011;64011;56.312;44.048;2023-12-22T08:48:59;27.48;;;12.95;;
38111;SDS011;64011;56.312;44.048;2023-12-22T08:51:01;29.65;;;13.95;;
38111;SDS011;64011;56.312;44.048;2023-12-22T08:53:02;26.35;;;12.98;;
38111;SDS011;64011;56.312;44.048;2023-12-22T08:55:03;25.15;;;10.75;;
38111;SDS011;64011;56.312;44.048;2023-12-22T08:57:05;26.98;;;13.27;;
38111;SDS011;64011;56.312;44.048;2023-12-22T08:59:06;28.23;;;13.13;;
38111;SDS011;64011;56.312;44.048;2023-12-22T09:01:07;28.63;;;13.75;;
38111;SDS011;64011;56.312;44.048;2023-12-22T09:03:08;28.30;;;15.02;;
38111;SDS011;64011;56.312;44.048;2023-12-22T09:05:08;28.35;;;13.35;;
38111;SDS011;64011;56.312;44.048;2023-12-22T09:07:11;29.80;;;13.23;;
38111;SDS011;64011;56.312;44.048;2023-12-22T09:09:12;29.33;;;13.35;;
38111;SDS011;64011;56.312;44.048;2023-12-22T09:11:13;29.80;;;14.63;;
38111;SDS011;64011;56.312;44.048;2023-12-22T09:13:15;29.63;;;13.23;;
38111;SDS011;64011;56.312;44.048;2023-12-22T09:15:16;28.58;;;13.13;;
38111;SDS011;64011;56.312;44.048;2023-12-22T09:17:17;31.67;;;14.13;;
38111;SDS011;64011;56.312;44.048;2023-12-22T09:19:18;33.08;;;15.07;;
38111;SDS011;64011;56.312;44.048;2023-12-22T09:21:19;32.15;;;13.90;;
38111;SDS011;64011;56.312;44.048;2023-12-22T09:23:21;25.98;;;10.88;;
38111;SDS011;64011;56.312;44.048;2023-12-22T09:25:23;31.33;;;14.18;;
38111;SDS011;64011;56.312;44.048;2023-12-22T09:27:24;24.27;;;10.98;;
38111;SDS011;64011;56.312;44.048;2023-12-22T09:29:25;26.80;;;11.48;;
38111;SDS011;64011;56.312;44.048;2023-12-22T09:31:26;24.92;;;11.63;;
38111;SDS011;64011;56.312;44.048;2023-12-22T09:33:27;25.15;;;11.93;;
38111;SDS011;64011;56.312;44.048;2023-12-22T09:35:27;24.40;;;10.13;;
38111;SDS011;64011;56.312;44.048;2023-12-22T09:37:28;23.83;;;10.68;;
38111;SDS011;64011;56.312;44.048;2023-12-22T09:39:31;22.67;;;10.10;;
38111;SDS011;64011;56.312;44.048;2023-12-22T09:41:31;28.20;;;12.95;;
38111;SDS011;64011;56.312;44.048;2023-12-22T09:43:33;27.05;;;12.65;;
38111;SDS011;64011;56.312;44.048;2023-12-22T09:45:35;28.10;;;13.57;;
38111;SDS011;64011;56.312;44.048;2023-12-22T09:47:37;30.80;;;14.18;;
38111;SDS011;64011;56.312;44.048;2023-12-22T09:49:39;28.42;;;14.85;;
38111;SDS011;64011;56.312;44.048;2023-12-22T09:51:41;30.48;;;15.45;;
38111;SDS011;64011;56.312;44.048;2023-12-22T09:53:43;32.15;;;14.98;;
38111;SDS011;64011;56.312;44.048;2023-12-22T09:55:46;32.15;;;16.73;;
38111;SDS011;64011;56.312;44.048;2023-12-22T09:57:47;33.58;;;18.55;;
38111;SDS011;64011;56.312;44.048;2023-12-22T09:59:50;35.15;;;18.77;;
38111;SDS011;64011;56.312;44.048;2023-12-22T10:01:51;38.88;;;20.58;;
38111;SDS011;64011;56.312;44.048;2023-12-22T10:03:53;37.80;;;18.13;;
38111;SDS011;64011;56.312;44.048;2023-12-22T10:05:54;37.53;;;20.90;;
38111;SDS011;64011;56.312;44.048;2023-12-22T10:07:55;44.45;;;22.65;;
38111;SDS011;64011;56.312;44.048;2023-12-22T10:09:56;53.72;;;26.55;;
38111;SDS011;64011;56.312;44.048;2023-12-22T10:11:58;38.72;;;17.30;;
38111;SDS011;64011;56.312;44.048;2023-12-22T10:14:02;35.08;;;13.88;;
38111;SDS011;64011;56.312;44.048;2023-12-22T10:16:03;49.83;;;23.48;;
38111;SDS011;64011;56.312;44.048;2023-12-22T10:18:05;52.33;;;26.67;;
38111;SDS011;64011;56.312;44.048;2023-12-22T10:20:06;52.78;;;25.45;;
38111;SDS011;64011;56.312;44.048;2023-12-22T10:22:08;51.83;;;26.92;;
38111;SDS011;64011;56.312;44.048;2023-12-22T10:24:18;49.47;;;26.63;;
38111;SDS011;64011;56.312;44.048;2023-12-22T10:26:38;46.03;;;23.58;;
38111;SDS011;64011;56.312;44.048;2023-12-22T10:28:40;44.30;;;21.90;;
38111;SDS011;64011;56.312;44.048;2023-12-22T10:30:41;44.67;;;23.00;;
38111;SDS011;64011;56.312;44.048;2023-12-22T10:32:42;41.97;;;21.77;;
38111;SDS011;64011;56.312;44.048;2023-12-22T10:34:43;38.30;;;19.65;;
38111;SDS011;64011;56.312;44.048;2023-12-22T10:36:44;36.35;;;17.95;;
38111;SDS011;64011;56.312;44.048;2023-12-22T10:38:45;34.03;;;16.45;;
38111;SDS011;64011;56.312;44.048;2023-12-22T10:40:46;32.67;;;16.33;;
38111;SDS011;64011;56.312;44.048;2023-12-22T10:42:46;31.92;;;16.83;;
38111;SDS011;64011;56.312;44.048;2023-12-22T10:44:50;33.72;;;16.88;;
38111;SDS011;64011;56.312;44.048;2023-12-22T10:46:51;34.08;;;16.33;;
38111;SDS011;64011;56.312;44.048;2023-12-22T10:48:52;33.25;;;16.13;;
38111;SDS011;64011;56.312;44.048;2023-12-22T10:50:53;34.50;;;16.05;;
38111;SDS011;64011;56.312;44.048;2023-12-22T10:52:54;35.03;;;17.75;;
38111;SDS011;64011;56.312;44.048;2023-12-22T10:54:56;34.05;;;17.48;;
38111;SDS011;64011;56.312;44.048;2023-12-22T10:56:57;41.85;;;20.10;;
38111;SDS011;64011;56.312;44.048;2023-12-22T10:58:58;42.40;;;20.23;;
38111;SDS011;64011;56.312;44.048;2023-12-22T11:01:01;44.65;;;22.02;;
38111;SDS011;64011;56.312;44.048;2023-12-22T11:03:02;47.67;;;22.25;;
38111;SDS011;64011;56.312;44.048;2023-12-22T11:05:07;40.53;;;19.50;;
38111;SDS011;64011;56.312;44.048;2023-12-22T11:07:11;43.53;;;22.73;;
38111;SDS011;64011;56.312;44.048;2023-12-22T11:09:12;48.13;;;23.30;;
38111;SDS011;64011;56.312;44.048;2023-12-22T11:11:31;43.88;;;20.48;;
38111;SDS011;64011;56.312;44.048;2023-12-22T11:13:33;39.17;;;18.50;;
38111;SDS011;64011;56.312;44.048;2023-12-22T11:15:35;41.08;;;20.00;;
38111;SDS011;64011;56.312;44.048;2023-12-22T11:17:38;38.97;;;18.90;;
38111;SDS011;64011;56.312;44.048;2023-12-22T11:19:40;39.75;;;20.15;;
38111;SDS011;64011;56.312;44.048;2023-12-22T11:21:43;38.65;;;18.50;;
38111;SDS011;64011;56.312;44.048;2023-12-22T11:23:44;39.75;;;19.98;;
38111;SDS011;64011;56.312;44.048;2023-12-22T11:25:45;39.83;;;20.20;;
38111;SDS011;64011;56.312;44.048;2023-12-22T11:27:47;38.42;;;19.60;;
38111;SDS011;64011;56.312;44.048;2023-12-22T11:29:49;37.92;;;18.95;;
38111;SDS011;64011;56.312;44.048;2023-12-22T11:31:50;39.80;;;19.95;;
38111;SDS011;64011;56.312;44.048;2023-12-22T11:33:56;36.28;;;18.10;;
38111;SDS011;64011;56.312;44.048;2023-12-22T11:35:58;33.40;;;17.00;;
38111;SDS011;64011;56.312;44.048;2023-12-22T11:38:00;33.65;;;17.25;;
38111;SDS011;64011;56.312;44.048;2023-12-22T11:40:01;36.63;;;19.70;;
38111;SDS011;64011;56.312;44.048;2023-12-22T11:42:05;32.08;;;16.38;;